Language: 


Des rapports , des résumés tant et plus, au choix de chacun....


Données statistiques de la station
Quotidien Rapport Juin 23, 2017 Unités:  Métrique    Anglais   les deux
« Précédent Jour
Suivant Jour »
Quotidien Hebdomadaire Mensuel Annuel Actuel
  Haut: Bas: Moyen:
Température: 24.0 °C 14.3 °C 18.8 °C
Pt de rosée: 17.0 °C 11.0 °C 13.6 °C
Humidité: 96 % 47 % 73 %
Vitesse du vent: 38.1 km/h 0.0 km/h 14.6 km/h
Rafales: 43.1 km/h - -
Vent:- - WSW
Pression: 1018.2 hPa 1014.1 hPa -
Précipitation: 0.0 mm    
Historical Graphs
 
 
Données statistiques pour Juin 23, 2017
Heure Température Point de rosée Pression Vent Vitesse du vent Refales Humidité Pluie (taux horaire)
00:00 16.6 °C 15.0 °C 1015.1 hPa WSW 7.9 km/h 12.6 km/h 87 % 0.0 mm
00:05 16.5 °C 15.0 °C 1015.1 hPa WSW 13.0 km/h 14.0 km/h 88 % 0.0 mm
00:07 16.5 °C 15.0 °C 1015.1 hPa West 5.8 km/h 14.0 km/h 88 % 0.0 mm
00:12 16.6 °C 15.0 °C 1015.1 hPa West 9.7 km/h 15.4 km/h 89 % 0.0 mm
00:17 16.6 °C 15.0 °C 1014.1 hPa WSW 13.7 km/h 15.4 km/h 89 % 0.0 mm
00:22 16.6 °C 15.0 °C 1014.1 hPa WSW 7.9 km/h 14.3 km/h 89 % 0.0 mm
00:28 16.6 °C 15.0 °C 1014.1 hPa Calm   11.9 km/h 89 % 0.0 mm
00:33 16.5 °C 15.0 °C 1015.1 hPa Calm   10.5 km/h 88 % 0.0 mm
00:38 16.4 °C 14.0 °C 1015.1 hPa WSW 6.1 km/h 9.3 km/h 88 % 0.0 mm
00:43 16.3 °C 14.0 °C 1015.1 hPa Calm   10.1 km/h 88 % 0.0 mm
00:48 16.1 °C 14.0 °C 1015.1 hPa SW 6.4 km/h 10.1 km/h 89 % 0.0 mm
00:53 16.1 °C 14.0 °C 1015.1 hPa WSW 8.7 km/h 10.5 km/h 89 % 0.0 mm
00:58 16.0 °C 14.0 °C 1015.1 hPa WSW 9.7 km/h 11.6 km/h 89 % 0.0 mm
01:02 15.9 °C 14.0 °C 1015.1 hPa WSW 4.0 km/h 11.6 km/h 90 % 0.0 mm
01:07 15.8 °C 14.0 °C 1015.1 hPa WSW 6.1 km/h 10.8 km/h 90 % 0.0 mm
01:12 15.7 °C 14.0 °C 1015.1 hPa WSW 7.9 km/h 10.5 km/h 90 % 0.0 mm
01:17 15.7 °C 14.0 °C 1015.1 hPa West 7.2 km/h 10.1 km/h 91 % 0.0 mm
01:22 15.6 °C 14.0 °C 1015.1 hPa WSW 7.6 km/h 10.5 km/h 91 % 0.0 mm
01:27 15.6 °C 14.0 °C 1015.1 hPa West 9.0 km/h 10.5 km/h 91 % 0.0 mm
01:32 15.6 °C 14.0 °C 1015.1 hPa WSW 10.5 km/h 10.5 km/h 91 % 0.0 mm
01:37 15.6 °C 14.0 °C 1015.1 hPa West 11.9 km/h 12.2 km/h 91 % 0.0 mm
01:42 15.6 °C 14.0 °C 1015.1 hPa WSW 6.9 km/h 13.0 km/h 92 % 0.0 mm
01:47 15.6 °C 14.0 °C 1015.1 hPa SW 6.9 km/h 13.0 km/h 92 % 0.0 mm
01:52 15.6 °C 14.0 °C 1015.1 hPa WSW 11.6 km/h 12.6 km/h 92 % 0.0 mm
01:57 15.6 °C 14.0 °C 1015.1 hPa WSW 6.4 km/h 12.2 km/h 92 % 0.0 mm
02:02 15.6 °C 14.0 °C 1015.1 hPa Calm   12.2 km/h 92 % 0.0 mm
02:07 15.5 °C 14.0 °C 1015.1 hPa West 6.4 km/h 12.2 km/h 92 % 0.0 mm
02:12 15.4 °C 14.0 °C 1015.1 hPa Calm   9.3 km/h 92 % 0.0 mm
02:17 15.4 °C 14.0 °C 1015.1 hPa Calm   9.3 km/h 92 % 0.0 mm
02:18 15.4 °C 14.0 °C 1015.1 hPa Calm   9.3 km/h 92 % 0.0 mm
02:23 15.4 °C 14.0 °C 1015.1 hPa WSW 6.4 km/h 9.3 km/h 92 % 0.0 mm
02:24 15.4 °C 14.0 °C 1015.1 hPa WSW 5.8 km/h 9.3 km/h 92 % 0.0 mm
02:29 15.4 °C 14.0 °C 1015.1 hPa WSW 9.7 km/h 9.7 km/h 92 % 0.0 mm
02:34 15.4 °C 14.0 °C 1015.1 hPa WSW 7.6 km/h 10.1 km/h 92 % 0.0 mm
02:35 15.4 °C 14.0 °C 1015.1 hPa WSW 13.0 km/h 13.0 km/h 92 % 0.0 mm
02:40 15.3 °C 14.0 °C 1015.1 hPa Calm   13.0 km/h 92 % 0.0 mm
02:45 15.3 °C 14.0 °C 1015.1 hPa Calm   8.7 km/h 92 % 0.0 mm
02:50 15.3 °C 14.0 °C 1015.1 hPa SW 2.1 km/h 8.7 km/h 93 % 0.0 mm
02:55 15.2 °C 14.0 °C 1015.1 hPa SW 5.8 km/h 9.7 km/h 93 % 0.0 mm
03:00 15.3 °C 14.0 °C 1015.1 hPa SSW 7.6 km/h 9.7 km/h 93 % 0.0 mm
03:05 15.3 °C 14.0 °C 1015.1 hPa Calm   9.0 km/h 93 % 0.0 mm
03:10 15.3 °C 14.0 °C 1015.1 hPa West 8.7 km/h 8.7 km/h 93 % 0.0 mm
03:15 15.3 °C 14.0 °C 1015.1 hPa SW 4.3 km/h 9.0 km/h 93 % 0.0 mm
03:20 15.3 °C 14.0 °C 1015.1 hPa West 3.5 km/h 9.7 km/h 93 % 0.0 mm
03:25 15.3 °C 14.0 °C 1015.1 hPa WSW 9.0 km/h 9.7 km/h 93 % 0.0 mm
03:30 15.4 °C 14.0 °C 1015.1 hPa Calm   9.0 km/h 93 % 0.0 mm
03:35 15.4 °C 14.0 °C 1015.1 hPa WSW 7.9 km/h 9.7 km/h 93 % 0.0 mm
03:40 15.4 °C 14.0 °C 1015.1 hPa WSW 6.9 km/h 10.5 km/h 93 % 0.0 mm
03:46 15.4 °C 14.0 °C 1015.1 hPa Calm   10.5 km/h 93 % 0.0 mm
03:51 15.3 °C 14.0 °C 1015.1 hPa Calm   6.9 km/h 93 % 0.0 mm
03:56 15.3 °C 14.0 °C 1015.1 hPa Calm     93 % 0.0 mm
04:06 15.2 °C 14.0 °C 1015.1 hPa Calm   6.4 km/h 93 % 0.0 mm
04:11 15.1 °C 14.0 °C 1015.1 hPa Calm   6.4 km/h 93 % 0.0 mm
04:16 15.1 °C 14.0 °C 1015.1 hPa Calm   6.9 km/h 93 % 0.0 mm
04:21 15.1 °C 14.0 °C 1015.1 hPa Calm   6.9 km/h 93 % 0.0 mm
04:26 15.0 °C 14.0 °C 1015.1 hPa Calm   5.8 km/h 93 % 0.0 mm
04:31 14.9 °C 14.0 °C 1015.1 hPa Calm   5.5 km/h 94 % 0.0 mm
04:36 14.9 °C 14.0 °C 1015.1 hPa West 1.8 km/h 5.8 km/h 94 % 0.0 mm
04:41 14.9 °C 14.0 °C 1015.1 hPa Calm   7.9 km/h 94 % 0.0 mm
04:46 14.9 °C 14.0 °C 1015.1 hPa WSW 6.1 km/h 7.9 km/h 94 % 0.0 mm
04:51 14.9 °C 14.0 °C 1015.1 hPa WSW 10.1 km/h 10.5 km/h 94 % 0.0 mm
04:56 14.9 °C 14.0 °C 1015.1 hPa West 9.0 km/h 10.5 km/h 94 % 0.0 mm
05:01 14.9 °C 14.0 °C 1015.1 hPa West 6.1 km/h 10.5 km/h 94 % 0.0 mm
05:06 14.8 °C 14.0 °C 1015.1 hPa West 4.7 km/h 10.1 km/h 94 % 0.0 mm
05:11 14.8 °C 14.0 °C 1015.1 hPa Calm   8.7 km/h 94 % 0.0 mm
05:16 14.7 °C 14.0 °C 1015.1 hPa West 4.0 km/h 6.9 km/h 95 % 0.0 mm
05:21 14.6 °C 14.0 °C 1015.1 hPa Calm   6.4 km/h 94 % 0.0 mm
05:26 14.5 °C 14.0 °C 1015.1 hPa Calm   6.1 km/h 94 % 0.0 mm
05:31 14.4 °C 13.0 °C 1015.1 hPa Calm   6.1 km/h 94 % 0.0 mm
05:36 14.4 °C 13.0 °C 1015.1 hPa Calm     94 % 0.0 mm
05:41 14.4 °C 13.0 °C 1015.1 hPa Calm     94 % 0.0 mm
05:46 14.4 °C 14.0 °C 1015.1 hPa Calm   7.2 km/h 95 % 0.0 mm
05:51 14.4 °C 14.0 °C 1015.1 hPa SW 5.8 km/h 7.6 km/h 95 % 0.0 mm
05:56 14.4 °C 14.0 °C 1015.1 hPa Calm   7.6 km/h 95 % 0.0 mm
06:01 14.4 °C 14.0 °C 1015.1 hPa Calm   6.1 km/h 95 % 0.0 mm
06:06 14.3 °C 14.0 °C 1015.1 hPa Calm   4.3 km/h 95 % 0.0 mm
06:12 14.4 °C 14.0 °C 1015.1 hPa Calm   6.9 km/h 95 % 0.0 mm
06:17 14.4 °C 14.0 °C 1014.1 hPa West 6.4 km/h 9.3 km/h 96 % 0.0 mm
06:22 14.5 °C 14.0 °C 1014.1 hPa WSW 6.4 km/h 9.3 km/h 96 % 0.0 mm
06:27 14.5 °C 14.0 °C 1014.1 hPa Calm   9.3 km/h 96 % 0.0 mm
06:32 14.6 °C 14.0 °C 1015.1 hPa Calm   9.3 km/h 96 % 0.0 mm
06:37 14.6 °C 14.0 °C 1015.1 hPa Calm   6.9 km/h 96 % 0.0 mm
06:42 14.7 °C 14.0 °C 1015.1 hPa West 6.4 km/h 6.9 km/h 96 % 0.0 mm
06:47 14.7 °C 14.0 °C 1014.1 hPa WSW 5.8 km/h 9.3 km/h 96 % 0.0 mm
06:52 14.8 °C 14.0 °C 1014.1 hPa WSW 5.0 km/h 10.5 km/h 96 % 0.0 mm
06:57 14.9 °C 15.0 °C 1014.1 hPa WSW 6.9 km/h 10.5 km/h 96 % 0.0 mm
07:02 14.9 °C 15.0 °C 1015.1 hPa WSW 4.0 km/h 10.5 km/h 96 % 0.0 mm
07:07 15.0 °C 15.0 °C 1015.1 hPa WSW 6.4 km/h 9.0 km/h 96 % 0.0 mm
07:12 15.0 °C 14.0 °C 1015.1 hPa SW 4.3 km/h 6.9 km/h 95 % 0.0 mm
07:17 15.2 °C 15.0 °C 1015.1 hPa West 6.9 km/h 9.0 km/h 96 % 0.0 mm
07:22 15.7 °C 15.0 °C 1015.1 hPa WSW 7.6 km/h 9.3 km/h 96 % 0.0 mm
07:27 16.1 °C 16.0 °C 1015.1 hPa West 8.7 km/h 9.7 km/h 96 % 0.0 mm
07:32 16.5 °C 16.0 °C 1015.1 hPa West 5.0 km/h 10.1 km/h 96 % 0.0 mm
07:37 16.8 °C 16.0 °C 1015.1 hPa West 9.7 km/h 12.2 km/h 95 % 0.0 mm
07:42 17.1 °C 16.0 °C 1015.1 hPa West 6.1 km/h 12.2 km/h 95 % 0.0 mm
07:47 17.4 °C 16.0 °C 1015.1 hPa West 9.3 km/h 11.9 km/h 94 % 0.0 mm
07:52 17.8 °C 17.0 °C 1015.1 hPa West 11.9 km/h 15.4 km/h 94 % 0.0 mm
07:57 18.1 °C 17.0 °C 1015.1 hPa West 7.9 km/h 16.9 km/h 92 % 0.0 mm
08:02 18.4 °C 17.0 °C 1015.1 hPa West 11.9 km/h 19.5 km/h 91 % 0.0 mm
08:07 18.6 °C 17.0 °C 1015.1 hPa West 10.1 km/h 19.5 km/h 90 % 0.0 mm
08:10 18.7 °C 17.0 °C 1015.1 hPa WSW 13.0 km/h 20.6 km/h 88 % 0.0 mm
08:15 18.8 °C 16.0 °C 1015.1 hPa West 9.3 km/h 20.6 km/h 86 % 0.0 mm
08:18 19.2 °C 17.0 °C 1015.1 hPa West 5.5 km/h 20.4 km/h 84 % 0.0 mm
08:23 19.7 °C 17.0 °C 1015.1 hPa WSW 16.6 km/h 19.8 km/h 82 % 0.0 mm
08:28 19.7 °C 16.0 °C 1015.1 hPa WSW 15.8 km/h 20.9 km/h 81 % 0.0 mm
08:33 19.4 °C 16.0 °C 1015.1 hPa WSW 19.8 km/h 20.9 km/h 81 % 0.0 mm
08:38 19.2 °C 16.0 °C 1015.1 hPa West 21.9 km/h 21.9 km/h 80 % 0.0 mm
08:43 19.0 °C 16.0 °C 1015.1 hPa WSW 15.8 km/h 24.5 km/h 80 % 0.0 mm
08:48 18.8 °C 15.0 °C 1016.1 hPa West 25.3 km/h 25.3 km/h 80 % 0.0 mm
08:53 18.9 °C 16.0 °C 1016.1 hPa West 19.5 km/h 25.3 km/h 80 % 0.0 mm
08:58 19.0 °C 16.0 °C 1016.1 hPa WSW 10.1 km/h 20.9 km/h 80 % 0.0 mm
09:03 19.0 °C 16.0 °C 1016.1 hPa West 16.9 km/h 17.2 km/h 80 % 0.0 mm
09:08 19.3 °C 16.0 °C 1016.1 hPa WSW 8.7 km/h 21.2 km/h 81 % 0.0 mm
09:13 19.9 °C 16.0 °C 1016.1 hPa West 14.0 km/h 21.6 km/h 79 % 0.0 mm
09:18 20.2 °C 16.0 °C 1016.1 hPa WSW 19.1 km/h 22.4 km/h 78 % 0.0 mm
09:23 20.2 °C 16.0 °C 1016.1 hPa WSW 19.8 km/h 28.0 km/h 77 % 0.0 mm
09:28 20.8 °C 16.0 °C 1016.1 hPa West 11.6 km/h 28.0 km/h 76 % 0.0 mm
09:33 20.4 °C 15.0 °C 1016.1 hPa WSW 24.8 km/h 24.8 km/h 73 % 0.0 mm
09:38 20.2 °C 15.0 °C 1016.1 hPa West 11.6 km/h 24.8 km/h 72 % 0.0 mm
09:43 19.9 °C 15.0 °C 1016.1 hPa West 15.8 km/h 25.3 km/h 72 % 0.0 mm
09:48 19.7 °C 15.0 °C 1016.8 hPa West 16.9 km/h 25.3 km/h 72 % 0.0 mm
09:53 19.5 °C 15.0 °C 1016.8 hPa West 9.3 km/h 28.5 km/h 73 % 0.0 mm
09:58 19.5 °C 15.0 °C 1016.8 hPa WSW 23.8 km/h 28.5 km/h 72 % 0.0 mm
10:03 19.6 °C 15.0 °C 1016.8 hPa West 15.4 km/h 28.5 km/h 72 % 0.0 mm
10:08 19.7 °C 15.0 °C 1016.8 hPa West 19.8 km/h 23.8 km/h 73 % 0.0 mm
10:10 19.9 °C 15.0 °C 1016.8 hPa West 16.6 km/h 21.6 km/h 73 % 0.0 mm
10:15 19.8 °C 15.0 °C 1016.8 hPa West 17.2 km/h 23.8 km/h 72 % 0.0 mm
10:20 19.7 °C 15.0 °C 1016.8 hPa West 12.6 km/h 27.0 km/h 72 % 0.0 mm
10:25 19.7 °C 15.0 °C 1016.8 hPa WSW 13.7 km/h 27.0 km/h 72 % 0.0 mm
10:30 19.5 °C 15.0 °C 1016.8 hPa WSW 20.9 km/h 24.5 km/h 72 % 0.0 mm
10:35 19.5 °C 14.0 °C 1016.8 hPa West 15.8 km/h 27.7 km/h 71 % 0.0 mm
10:40 19.6 °C 14.0 °C 1016.8 hPa West 22.7 km/h 28.5 km/h 70 % 0.0 mm
10:45 19.7 °C 14.0 °C 1016.8 hPa West 23.8 km/h 28.5 km/h 71 % 0.0 mm
10:50 19.9 °C 15.0 °C 1016.8 hPa WSW 15.4 km/h 27.7 km/h 71 % 0.0 mm
10:55 20.6 °C 15.0 °C 1016.8 hPa WSW 19.5 km/h 22.7 km/h 70 % 0.0 mm
11:00 20.8 °C 15.0 °C 1016.8 hPa WSW 15.8 km/h 27.7 km/h 68 % 0.0 mm
11:05 20.6 °C 15.0 °C 1016.8 hPa West 15.4 km/h 27.7 km/h 68 % 0.0 mm
11:11 20.2 °C 14.0 °C 1016.8 hPa West 18.3 km/h 23.3 km/h 69 % 0.0 mm
11:16 20.0 °C 14.0 °C 1016.1 hPa West 20.6 km/h 23.3 km/h 69 % 0.0 mm
11:21 20.0 °C 14.0 °C 1016.1 hPa SW 17.7 km/h 24.5 km/h 68 % 0.0 mm
11:26 20.0 °C 14.0 °C 1016.1 hPa West 24.5 km/h 24.5 km/h 67 % 0.0 mm
11:31 19.8 °C 14.0 °C 1016.8 hPa WSW 11.1 km/h 24.5 km/h 68 % 0.0 mm
11:36 19.8 °C 14.0 °C 1016.8 hPa WSW 17.2 km/h 28.0 km/h 68 % 0.0 mm
11:41 19.9 °C 14.0 °C 1016.8 hPa West 17.2 km/h 28.0 km/h 68 % 0.0 mm
11:46 20.5 °C 14.0 °C 1016.8 hPa WSW 20.6 km/h 27.0 km/h 67 % 0.0 mm
11:51 20.4 °C 14.0 °C 1016.8 hPa WSW 17.2 km/h 24.5 km/h 66 % 0.0 mm
11:56 20.4 °C 14.0 °C 1016.8 hPa WSW 14.8 km/h 24.5 km/h 67 % 0.0 mm
12:01 21.2 °C 15.0 °C 1016.8 hPa West 17.7 km/h 25.9 km/h 66 % 0.0 mm
12:06 21.2 °C 14.0 °C 1016.8 hPa SW 15.1 km/h 25.9 km/h 64 % 0.0 mm
12:11 20.9 °C 14.0 °C 1016.8 hPa WSW 12.2 km/h 28.0 km/h 65 % 0.0 mm
12:16 21.0 °C 14.0 °C 1016.8 hPa WSW 10.8 km/h 28.0 km/h 65 % 0.0 mm
12:21 21.6 °C 14.0 °C 1016.8 hPa West 28.8 km/h 28.8 km/h 62 % 0.0 mm
12:26 21.7 °C 14.0 °C 1016.8 hPa WSW 15.4 km/h 28.8 km/h 62 % 0.0 mm
12:31 21.8 °C 14.0 °C 1016.8 hPa SW 13.7 km/h 25.3 km/h 62 % 0.0 mm
12:36 22.5 °C 15.0 °C 1016.8 hPa West 16.9 km/h 25.3 km/h 61 % 0.0 mm
12:41 22.7 °C 15.0 °C 1016.8 hPa SW 12.6 km/h 25.3 km/h 60 % 0.0 mm
12:46 22.7 °C 15.0 °C 1016.8 hPa West 19.5 km/h 28.5 km/h 60 % 0.0 mm
12:52 22.3 °C 14.0 °C 1018.2 hPa WSW 20.6 km/h 28.5 km/h 59 % 0.0 mm
12:57 22.5 °C 14.0 °C 1018.2 hPa West 20.1 km/h 27.7 km/h 57 % 0.0 mm
13:02 22.9 °C 14.0 °C 1018.2 hPa WSW 20.9 km/h 32.3 km/h 57 % 0.0 mm
13:07 22.8 °C 13.0 °C 1018.2 hPa WSW 23.8 km/h 32.3 km/h 55 % 0.0 mm
13:12 22.7 °C 13.0 °C 1018.2 hPa West 21.2 km/h 28.5 km/h 53 % 0.0 mm
13:17 22.7 °C 13.0 °C 1016.8 hPa SW 16.6 km/h 28.5 km/h 54 % 0.0 mm
13:22 22.9 °C 13.0 °C 1016.8 hPa WSW 17.2 km/h 27.7 km/h 54 % 0.0 mm
13:27 23.1 °C 13.0 °C 1016.8 hPa WSW 20.9 km/h 24.8 km/h 54 % 0.0 mm
13:32 23.4 °C 14.0 °C 1016.8 hPa SSW 15.8 km/h 24.8 km/h 54 % 0.0 mm
13:37 23.2 °C 13.0 °C 1016.8 hPa SW 16.9 km/h 25.6 km/h 53 % 0.0 mm
13:42 23.0 °C 13.0 °C 1016.8 hPa West 23.8 km/h 28.5 km/h 52 % 0.0 mm
13:47 22.7 °C 12.0 °C 1018.2 hPa West 23.3 km/h 36.4 km/h 51 % 0.0 mm
13:52 23.0 °C 13.0 °C 1018.2 hPa WSW 24.5 km/h 36.4 km/h 52 % 0.0 mm
13:57 23.3 °C 13.0 °C 1018.2 hPa SSW 13.7 km/h 31.4 km/h 52 % 0.0 mm
14:02 23.8 °C 13.0 °C 1016.8 hPa SSW 21.2 km/h 23.3 km/h 52 % 0.0 mm
14:08 23.7 °C 13.0 °C 1016.8 hPa WSW 20.1 km/h 30.6 km/h 50 % 0.0 mm
14:13 23.6 °C 13.0 °C 1016.8 hPa WSW 18.0 km/h 37.8 km/h 51 % 0.0 mm
14:18 23.2 °C 13.0 °C 1016.8 hPa WSW 21.2 km/h 37.8 km/h 52 % 0.0 mm
14:23 24.0 °C 14.0 °C 1016.8 hPa WSW 16.6 km/h 28.5 km/h 53 % 0.0 mm
14:28 23.8 °C 13.0 °C 1016.8 hPa WSW 30.6 km/h 32.0 km/h 50 % 0.0 mm
14:30 23.5 °C 13.0 °C 1016.8 hPa WSW 23.3 km/h 36.0 km/h 50 % 0.0 mm
14:35 23.6 °C 13.0 °C 1018.2 hPa WSW 25.6 km/h 36.0 km/h 52 % 0.0 mm
14:40 23.4 °C 13.0 °C 1018.2 hPa WSW 20.1 km/h 31.7 km/h 52 % 0.0 mm
14:45 23.4 °C 13.0 °C 1018.2 hPa WSW 21.9 km/h 36.0 km/h 52 % 0.0 mm
14:50 23.5 °C 13.0 °C 1016.8 hPa West 20.6 km/h 36.0 km/h 50 % 0.0 mm
14:55 23.4 °C 12.0 °C 1016.8 hPa WSW 16.6 km/h 34.6 km/h 49 % 0.0 mm
15:00 23.7 °C 13.0 °C 1016.8 hPa WSW 19.5 km/h 34.6 km/h 50 % 0.0 mm
15:05 23.2 °C 12.0 °C 1016.8 hPa SW 16.9 km/h 31.7 km/h 49 % 0.0 mm
15:10 23.2 °C 13.0 °C 1016.8 hPa West 27.0 km/h 31.7 km/h 50 % 0.0 mm
15:16 23.0 °C 12.0 °C 1018.2 hPa West 27.7 km/h 31.4 km/h 50 % 0.0 mm
15:21 23.3 °C 13.0 °C 1018.2 hPa WSW 24.5 km/h 31.4 km/h 51 % 0.0 mm
15:26 23.5 °C 13.0 °C 1018.2 hPa WSW 25.3 km/h 31.7 km/h 49 % 0.0 mm
15:28 23.5 °C 13.0 °C 1018.2 hPa West 20.6 km/h 31.7 km/h 49 % 0.0 mm
15:33 23.0 °C 12.0 °C 1016.8 hPa West 35.2 km/h 40.7 km/h 48 % 0.0 mm
15:38 23.3 °C 13.0 °C 1016.8 hPa WSW 19.1 km/h 40.7 km/h 50 % 0.0 mm
15:43 23.3 °C 12.0 °C 1016.8 hPa SW 25.6 km/h 36.0 km/h 48 % 0.0 mm
15:48 23.0 °C 12.0 °C 1016.8 hPa West 21.2 km/h 36.0 km/h 49 % 0.0 mm
15:53 23.1 °C 13.0 °C 1016.8 hPa WSW 17.7 km/h 36.7 km/h 51 % 0.0 mm
15:58 23.0 °C 13.0 °C 1016.8 hPa SSW 14.0 km/h 36.7 km/h 51 % 0.0 mm
16:03 23.1 °C 12.0 °C 1016.8 hPa WSW 25.6 km/h 36.4 km/h 50 % 0.0 mm
16:08 23.2 °C 13.0 °C 1016.8 hPa West 21.2 km/h 32.0 km/h 51 % 0.0 mm
16:13 23.4 °C 13.0 °C 1016.8 hPa WSW 16.6 km/h 30.2 km/h 51 % 0.0 mm
16:18 23.0 °C 12.0 °C 1018.2 hPa West 33.5 km/h 36.0 km/h 50 % 0.0 mm
16:23 22.8 °C 12.0 °C 1018.2 hPa WSW 31.4 km/h 41.0 km/h 50 % 0.0 mm
16:28 22.6 °C 12.0 °C 1018.2 hPa WSW 28.5 km/h 41.0 km/h 51 % 0.0 mm
16:33 22.7 °C 13.0 °C 1016.8 hPa WSW 23.8 km/h 38.9 km/h 52 % 0.0 mm
16:38 22.8 °C 12.0 °C 1016.8 hPa WSW 31.4 km/h 33.8 km/h 50 % 0.0 mm
16:43 22.7 °C 12.0 °C 1016.8 hPa West 21.2 km/h 33.8 km/h 50 % 0.0 mm
16:48 23.0 °C 12.0 °C 1018.2 hPa WSW 17.7 km/h 31.7 km/h 49 % 0.0 mm
16:53 22.9 °C 12.0 °C 1018.2 hPa WSW 17.2 km/h 31.4 km/h 49 % 0.0 mm
16:58 22.8 °C 11.0 °C 1018.2 hPa WSW 24.5 km/h 37.0 km/h 47 % 0.0 mm
17:03 22.8 °C 11.0 °C 1016.8 hPa WSW 28.0 km/h 37.0 km/h 48 % 0.0 mm
17:09 22.9 °C 12.0 °C 1016.8 hPa West 33.1 km/h 33.5 km/h 49 % 0.0 mm
17:14 22.7 °C 12.0 °C 1016.8 hPa WSW 17.7 km/h 33.5 km/h 49 % 0.0 mm
17:19 22.8 °C 12.0 °C 1016.8 hPa SW 19.5 km/h 33.1 km/h 50 % 0.0 mm
17:24 22.9 °C 12.0 °C 1016.8 hPa West 21.2 km/h 36.0 km/h 49 % 0.0 mm
17:29 22.8 °C 12.0 °C 1016.8 hPa West 35.2 km/h 36.7 km/h 49 % 0.0 mm
17:34 22.8 °C 12.0 °C 1016.8 hPa WSW 21.2 km/h 36.7 km/h 50 % 0.0 mm
17:37 22.5 °C 12.0 °C 1016.8 hPa West 21.6 km/h 36.7 km/h 50 % 0.0 mm
17:42 22.2 °C 12.0 °C 1016.8 hPa West 24.5 km/h 36.0 km/h 51 % 0.0 mm
17:47 22.3 °C 12.0 °C 1016.8 hPa West 27.7 km/h 36.0 km/h 51 % 0.0 mm
17:52 22.4 °C 12.0 °C 1016.8 hPa West 35.6 km/h 35.6 km/h 51 % 0.0 mm
17:57 21.9 °C 12.0 °C 1016.8 hPa WSW 31.7 km/h 37.5 km/h 53 % 0.0 mm
18:02 21.7 °C 12.0 °C 1018.2 hPa West 25.6 km/h 37.5 km/h 53 % 0.0 mm
18:08 21.6 °C 12.0 °C 1018.2 hPa West 32.0 km/h 36.7 km/h 53 % 0.0 mm
18:13 21.8 °C 12.0 °C 1018.2 hPa West 23.3 km/h 36.7 km/h 54 % 0.0 mm
18:18 21.7 °C 12.0 °C 1016.8 hPa SSW 12.6 km/h 35.2 km/h 54 % 0.0 mm
18:23 22.1 °C 13.0 °C 1016.8 hPa West 28.8 km/h 33.5 km/h 54 % 0.0 mm
18:28 22.1 °C 12.0 °C 1016.8 hPa WSW 20.9 km/h 34.6 km/h 53 % 0.0 mm
18:33 22.0 °C 12.0 °C 1016.8 hPa West 20.6 km/h 34.6 km/h 52 % 0.0 mm
18:38 22.1 °C 12.0 °C 1016.8 hPa West 20.9 km/h 28.5 km/h 53 % 0.0 mm
18:43 21.8 °C 12.0 °C 1016.8 hPa West 25.9 km/h 38.5 km/h 53 % 0.0 mm
18:48 21.7 °C 12.0 °C 1016.8 hPa West 19.8 km/h 38.5 km/h 53 % 0.0 mm
18:53 22.0 °C 12.0 °C 1016.8 hPa WSW 24.5 km/h 36.7 km/h 52 % 0.0 mm
18:58 21.7 °C 12.0 °C 1016.8 hPa WSW 29.9 km/h 36.4 km/h 52 % 0.0 mm
19:03 21.4 °C 12.0 °C 1018.2 hPa WSW 30.9 km/h 37.5 km/h 53 % 0.0 mm
19:08 21.3 °C 12.0 °C 1018.2 hPa West 24.8 km/h 41.0 km/h 53 % 0.0 mm
19:13 20.8 °C 11.0 °C 1018.2 hPa West 27.7 km/h 41.0 km/h 54 % 0.0 mm
19:18 20.7 °C 12.0 °C 1018.2 hPa West 32.3 km/h 43.1 km/h 56 % 0.0 mm
19:23 20.7 °C 12.0 °C 1018.2 hPa West 23.3 km/h 43.1 km/h 56 % 0.0 mm
19:28 20.2 °C 12.0 °C 1018.2 hPa West 27.4 km/h 38.9 km/h 57 % 0.0 mm
19:33 20.0 °C 12.0 °C 1018.2 hPa WSW 26.2 km/h 38.9 km/h 58 % 0.0 mm
19:38 19.7 °C 12.0 °C 1018.2 hPa West 24.8 km/h 36.7 km/h 60 % 0.0 mm
19:43 19.6 °C 12.0 °C 1018.2 hPa West 24.8 km/h 36.7 km/h 61 % 0.0 mm
19:49 19.8 °C 12.0 °C 1018.2 hPa West 38.1 km/h 38.1 km/h 61 % 0.0 mm
19:54 20.0 °C 13.0 °C 1018.2 hPa WSW 16.6 km/h 38.1 km/h 62 % 0.0 mm
19:59 19.6 °C 12.0 °C 1018.2 hPa SW 30.6 km/h 40.4 km/h 61 % 0.0 mm
20:03 19.4 °C 12.0 °C 1018.2 hPa WSW 24.5 km/h 40.4 km/h 62 % 0.0 mm
20:09 19.2 °C 12.0 °C 1018.2 hPa WSW 27.7 km/h 39.3 km/h 63 % 0.0 mm
20:14 19.3 °C 12.0 °C 1018.2 hPa West 23.8 km/h 40.7 km/h 63 % 0.0 mm
20:19 19.1 °C 12.0 °C 1018.2 hPa West 15.8 km/h 40.7 km/h 63 % 0.0 mm
20:24 19.0 °C 12.0 °C 1018.2 hPa West 20.1 km/h 37.0 km/h 64 % 0.0 mm
20:29 18.9 °C 13.0 °C 1018.2 hPa West 21.2 km/h 31.4 km/h 65 % 0.0 mm
20:34 18.9 °C 13.0 °C 1018.2 hPa West 25.9 km/h 40.7 km/h 66 % 0.0 mm
20:39 18.8 °C 12.0 °C 1018.2 hPa West 16.6 km/h 40.7 km/h 65 % 0.0 mm
20:44 18.8 °C 12.0 °C 1018.2 hPa WSW 20.9 km/h 36.4 km/h 66 % 0.0 mm
20:49 18.8 °C 12.0 °C 1018.2 hPa SSW 15.4 km/h 27.0 km/h 66 % 0.0 mm
20:54 18.9 °C 13.0 °C 1018.2 hPa WSW 15.8 km/h 27.0 km/h 66 % 0.0 mm
20:59 18.9 °C 13.0 °C 1018.2 hPa WSW 23.8 km/h 28.0 km/h 67 % 0.0 mm
21:04 18.8 °C 12.0 °C 1018.2 hPa WSW 20.9 km/h 28.0 km/h 66 % 0.0 mm
21:09 18.8 °C 13.0 °C 1018.2 hPa WSW 27.7 km/h 28.0 km/h 67 % 0.0 mm
21:10 18.8 °C 13.0 °C 1018.2 hPa SW 20.1 km/h 28.0 km/h 67 % 0.0 mm
21:15 18.7 °C 13.0 °C 1018.2 hPa SW 23.8 km/h 32.0 km/h 67 % 0.0 mm
21:20 18.6 °C 13.0 °C 1018.2 hPa West 28.0 km/h 32.0 km/h 68 % 0.0 mm
21:25 18.5 °C 13.0 °C 1018.2 hPa West 21.2 km/h 31.7 km/h 68 % 0.0 mm
21:30 18.4 °C 13.0 °C 1018.2 hPa WSW 12.6 km/h 31.4 km/h 68 % 0.0 mm
21:35 18.3 °C 13.0 °C 1018.2 hPa West 16.9 km/h 33.1 km/h 69 % 0.0 mm
21:40 18.1 °C 12.0 °C 1018.2 hPa WSW 17.2 km/h 33.1 km/h 69 % 0.0 mm
21:45 18.0 °C 13.0 °C 1018.2 hPa WSW 13.7 km/h 27.4 km/h 70 % 0.0 mm
21:50 17.9 °C 13.0 °C 1018.2 hPa West 12.2 km/h 21.9 km/h 71 % 0.0 mm
21:55 17.9 °C 13.0 °C 1018.2 hPa WSW 23.3 km/h 26.2 km/h 71 % 0.0 mm
22:00 17.8 °C 13.0 °C 1018.2 hPa West 17.7 km/h 27.4 km/h 72 % 0.0 mm
22:05 17.6 °C 13.0 °C 1018.2 hPa WSW 17.2 km/h 27.4 km/h 72 % 0.0 mm
22:10 17.4 °C 13.0 °C 1018.2 hPa West 20.6 km/h 26.2 km/h 73 % 0.0 mm
22:15 17.4 °C 13.0 °C 1018.2 hPa WSW 20.1 km/h 26.2 km/h 74 % 0.0 mm
22:20 17.2 °C 13.0 °C 1018.2 hPa WSW 20.9 km/h 27.4 km/h 74 % 0.0 mm
22:26 17.1 °C 13.0 °C 1018.2 hPa WSW 20.1 km/h 27.4 km/h 75 % 0.0 mm
22:31 17.0 °C 13.0 °C 1018.2 hPa West 17.2 km/h 26.2 km/h 76 % 0.0 mm
22:36 17.0 °C 13.0 °C 1018.2 hPa WSW 12.2 km/h 26.2 km/h 77 % 0.0 mm
22:41 16.8 °C 13.0 °C 1018.2 hPa SW 11.9 km/h 20.1 km/h 78 % 0.0 mm
22:46 16.7 °C 13.0 °C 1018.2 hPa WSW 10.1 km/h 20.1 km/h 79 % 0.0 mm
22:51 16.6 °C 13.0 °C 1018.2 hPa WSW 10.5 km/h 18.3 km/h 80 % 0.0 mm
22:56 16.5 °C 13.0 °C 1018.2 hPa WNW 9.7 km/h 16.3 km/h 80 % 0.0 mm
23:01 16.5 °C 13.0 °C 1018.2 hPa WSW 12.6 km/h 19.8 km/h 81 % 0.0 mm
23:06 16.4 °C 13.0 °C 1018.2 hPa WSW 7.6 km/h 19.8 km/h 81 % 0.0 mm
23:11 16.2 °C 13.0 °C 1018.2 hPa SW 9.7 km/h 16.9 km/h 81 % 0.0 mm
23:16 16.2 °C 13.0 °C 1018.2 hPa SW 4.7 km/h 16.9 km/h 81 % 0.0 mm
23:21 16.1 °C 13.0 °C 1018.2 hPa WSW 9.0 km/h 14.0 km/h 82 % 0.0 mm
23:26 16.1 °C 13.0 °C 1018.2 hPa SW 8.7 km/h 16.6 km/h 82 % 0.0 mm
23:31 16.0 °C 13.0 °C 1018.2 hPa SSW 9.0 km/h 16.6 km/h 83 % 0.0 mm
23:36 15.9 °C 13.0 °C 1018.2 hPa WSW 2.6 km/h 13.7 km/h 83 % 0.0 mm
23:41 15.9 °C 13.0 °C 1018.2 hPa SW 12.2 km/h 15.8 km/h 83 % 0.0 mm
23:46 15.8 °C 13.0 °C 1018.2 hPa SW 10.8 km/h 15.8 km/h 84 % 0.0 mm
23:51 15.8 °C 13.0 °C 1018.2 hPa SW 10.1 km/h 16.9 km/h 84 % 0.0 mm
23:56 15.7 °C 13.0 °C 1018.2 hPa WSW 10.5 km/h 16.9 km/h 84 % 0.0 mm
Le Gheer Warneton
Courtoisie de Weather Underground - 2.25 mb

Mise a jour : 18/12/2017 23:25:11
Généré par Cumulus 1.9.4 (1099)